• Join FlightAware (Why Join?)
  • Login
  • US Flag 
02:29PM EDT


 

Airport Tracker/Info


-or-


 

Live Flight TrackerFlight Track Log ✈ EJA312 ✈ 15-Oct-2013 ✈ KBDU - KSAF

Flight Track Log - Related Links

Times and Time Zones

All times are in EDT time to prevent confusion due to time zone crossing. See the EJA312 flight status page for this flight to view local times or setup timezone preferences in your user account.

Time Position Orientation Groundspeed Altitude Reporting Facility
EDT Latitude Longitude Course Direction KTS MPH feet Rate Location/Type
06:12PM 40.0333 -105.1667 123° Southeast 197 227 7,700  Level Denver TRACON
06:12PM 40.0167 -105.1000 108° East 258 297 8,100 1,740 Climbing Denver TRACON
06:13PM 39.9333 -105.1000 180° South 278 320 11,100 3,060 Climbing Denver TRACON
06:15PM 39.8500 -105.0833 171° South 304 350 14,600 3,240 Climbing Denver TRACON
06:15PM 39.7667 -105.0667 171° South 329 379 17,600 3,120 Climbing Denver TRACON
06:17PM 39.7706 -104.7912 123° Southeast  Level FlightAware Approximate
06:17PM 39.6650 -105.0278 164° South 338 389 21,100  Level Denver Center
06:18PM 39.5653 -104.9897 164° South 347 399 23,000 900 Climbing Denver Center
06:19PM 39.4569 -104.9858 178° South 391 450 23,000 840 Level Denver Center
06:20PM 39.3469 -105.0133 191° South 382 440 24,800 960 Climbing Denver Center
06:21PM 39.2411 -105.0364 190° South 389 448 25,000 60 Climbing Denver Center
06:22PM 39.1347 -105.0686 193° South 392 451 25,000  Level Denver Center
06:23PM 39.0331 -105.1003 194° South 377 434 25,000  Level Denver Center
06:24PM 38.9317 -105.1300 193° South 374 430 25,000  Level Denver Center
06:25PM 38.8228 -105.1628 193° South 370 426 25,000  Level Denver Center
06:26PM 38.7106 -105.1969 193° South 370 426 25,000  Level Denver Center
06:27PM 38.6144 -105.2256 193° South 370 426 25,000  Level Denver Center
06:28PM 38.5036 -105.2594 193° South 368 423 25,000  Level Denver Center
06:29PM 38.4078 -105.2869 193° South 369 425 25,000  Level Denver Center
06:30PM 38.2961 -105.3200 193° South 368 423 25,000  Level Denver Center
06:31PM 38.2008 -105.3497 194° South 368 423 25,000  Level Denver Center
06:32PM 38.0894 -105.3811 193° South 368 423 25,000  Level Denver Center
06:33PM 37.9958 -105.4106 194° South 365 420 25,000  Level Denver Center
06:34PM 37.9022 -105.4378 193° South 363 418 25,000  Level Denver Center
06:35PM 37.7889 -105.4717 193° South 367 422 25,000  Level Denver Center
06:36PM 37.6922 -105.4986 192° South 370 426 25,000  Level Denver Center
06:37PM 37.5833 -105.5314 193° South 366 421 25,000  Level Denver Center
06:38PM 37.4900 -105.5586 193° South 363 418 25,000  Level Denver Center
06:39PM 37.3778 -105.5922 193° South 365 420 25,000  Level Denver Center
06:40PM 37.2819 -105.6200 193° South 367 422 25,000  Level Denver Center
06:41PM 37.1683 -105.6517 193° South 371 427 25,000  Level Denver Center
06:42PM 37.0708 -105.6792 193° South 373 429 25,000  Level Denver Center
06:43PM 36.9561 -105.7114 193° South 376 433 25,000  Level Denver Center
06:45PM 36.8608 -105.7394 193° South 372 428 25,000 -600 Level Denver Center
06:46PM 36.7536 -105.7703 193° South 380 437 23,800 -1,680 Descending Denver Center
06:47PM 36.6450 -105.8014 193° South 382 440 21,600 -2,160 Descending Denver Center
06:47PM 36.5764 -105.8219 194° South 381 438 20,200 -2,040 Descending Albuquerque Center
06:48PM 36.4789 -105.8492 193° South 366 421 18,200 -1,920 Descending Albuquerque Center
06:49PM 36.3819 -105.8756 192° South 358 412 16,300 -1,140 Descending Albuquerque Center
06:50PM 36.2806 -105.9050 193° South 368 423 15,900 -240 Descending Albuquerque Center
06:51PM 36.1844 -105.9308 192° South 359 413 15,900 -60 Level Albuquerque Center
06:52PM 36.0864 -105.9592 193° South 360 414 15,800 -1,560 Descending Albuquerque Center
06:53PM 35.9764 -105.9892 192° South 339 390 12,800 -2,400 Descending Albuquerque Center
06:54PM 35.9014 -106.0106 193° South 286 329 10,900 -900 Descending Albuquerque Center
06:55PM 35.8289 -106.0306 193° South 261 300 11,000 -300 Climbing Albuquerque Center
06:56PM 35.7597 -106.0500 193° South 256 295 10,400 -1,380 Descending Albuquerque Center
06:58PM 35.7086 -106.0875 211° Southwest 220 253 8,200 -1,620 Descending Albuquerque Center
06:59PM 35.6664 -106.1036 197° South 168 193 7,100 -1,140 Descending Albuquerque Center